Terminal Aerodrome Forecast
Issued by NWS Cleveland, OH

Home | Current Version | Previous Version | Graphics & Text | Print | Product List | Glossary On
Versions: 1 2 3 4 5 6 7 8 9 10 11 12 13 14 15 16 17 18 19 20 21 22 23 24 25 26 27 28 29
000
FTUS41 KCLE 222300
TAFCLE
TAF
KCLE 222340Z 2300/2406 24008KT P6SM FEW050
     FM231100 26008KT P6SM VCSH BKN050 OVC100
     FM231300 32008KT P6SM VCSH OVC020
      TEMPO 2313/2317 34012KT -SHRA OVC012
     FM231700 34012KT P6SM BKN018
     FM240100 01008KT P6SM SCT030=

USA.gov is the U.S. government's official web portal to all federal, state and local government web resources and services.